sensor_id;sensor_type;location;lat;lon;timestamp;P1;durP1;ratioP1;P2;durP2;ratioP2
8252;SDS011;61313;48.396;10.008;2024-01-15T00:01:07;15.33;;;9.60;;
8252;SDS011;61313;48.396;10.008;2024-01-15T00:03:33;17.27;;;9.00;;
8252;SDS011;61313;48.396;10.008;2024-01-15T00:05:58;16.60;;;9.17;;
8252;SDS011;61313;48.396;10.008;2024-01-15T00:08:23;18.50;;;10.13;;
8252;SDS011;61313;48.396;10.008;2024-01-15T00:10:49;16.27;;;10.30;;
8252;SDS011;61313;48.396;10.008;2024-01-15T00:13:14;16.97;;;9.23;;
8252;SDS011;61313;48.396;10.008;2024-01-15T00:15:39;15.30;;;11.70;;
8252;SDS011;61313;48.396;10.008;2024-01-15T00:18:05;18.73;;;10.00;;
8252;SDS011;61313;48.396;10.008;2024-01-15T00:20:31;17.13;;;9.93;;
8252;SDS011;61313;48.396;10.008;2024-01-15T00:22:56;20.13;;;10.23;;
8252;SDS011;61313;48.396;10.008;2024-01-15T00:25:22;15.40;;;8.77;;
8252;SDS011;61313;48.396;10.008;2024-01-15T00:27:47;17.70;;;11.10;;
8252;SDS011;61313;48.396;10.008;2024-01-15T00:30:13;15.40;;;9.63;;
8252;SDS011;61313;48.396;10.008;2024-01-15T00:32:38;18.13;;;10.17;;
8252;SDS011;61313;48.396;10.008;2024-01-15T00:35:04;13.03;;;8.97;;
8252;SDS011;61313;48.396;10.008;2024-01-15T00:37:30;15.97;;;9.60;;
8252;SDS011;61313;48.396;10.008;2024-01-15T00:39:55;13.10;;;9.07;;
8252;SDS011;61313;48.396;10.008;2024-01-15T00:42:20;14.73;;;9.50;;
8252;SDS011;61313;48.396;10.008;2024-01-15T00:44:46;16.30;;;9.93;;
8252;SDS011;61313;48.396;10.008;2024-01-15T00:47:11;15.27;;;9.87;;
8252;SDS011;61313;48.396;10.008;2024-01-15T00:49:37;14.80;;;8.47;;
8252;SDS011;61313;48.396;10.008;2024-01-15T00:52:02;18.03;;;10.97;;
8252;SDS011;61313;48.396;10.008;2024-01-15T00:54:28;15.93;;;9.10;;
8252;SDS011;61313;48.396;10.008;2024-01-15T00:56:53;14.33;;;9.10;;
8252;SDS011;61313;48.396;10.008;2024-01-15T00:59:19;16.00;;;9.00;;
8252;SDS011;61313;48.396;10.008;2024-01-15T01:01:45;15.07;;;9.10;;
8252;SDS011;61313;48.396;10.008;2024-01-15T01:04:11;13.90;;;7.63;;
8252;SDS011;61313;48.396;10.008;2024-01-15T01:06:36;14.30;;;8.60;;
8252;SDS011;61313;48.396;10.008;2024-01-15T01:09:02;12.07;;;8.50;;
8252;SDS011;61313;48.396;10.008;2024-01-15T01:11:27;13.20;;;8.27;;
8252;SDS011;61313;48.396;10.008;2024-01-15T01:13:52;13.90;;;9.00;;
8252;SDS011;61313;48.396;10.008;2024-01-15T01:16:18;13.63;;;8.43;;
8252;SDS011;61313;48.396;10.008;2024-01-15T01:18:43;14.10;;;9.40;;
8252;SDS011;61313;48.396;10.008;2024-01-15T01:21:08;10.70;;;5.70;;
8252;SDS011;61313;48.396;10.008;2024-01-15T01:23:34;9.20;;;6.60;;
8252;SDS011;61313;48.396;10.008;2024-01-15T01:25:59;10.90;;;6.20;;
8252;SDS011;61313;48.396;10.008;2024-01-15T01:28:24;11.37;;;5.77;;
8252;SDS011;61313;48.396;10.008;2024-01-15T01:30:50;10.60;;;6.37;;
8252;SDS011;61313;48.396;10.008;2024-01-15T01:33:15;10.70;;;5.50;;
8252;SDS011;61313;48.396;10.008;2024-01-15T01:35:41;10.00;;;5.40;;
8252;SDS011;61313;48.396;10.008;2024-01-15T01:38:06;8.17;;;4.97;;
8252;SDS011;61313;48.396;10.008;2024-01-15T01:40:31;7.27;;;5.47;;
8252;SDS011;61313;48.396;10.008;2024-01-15T01:42:57;6.17;;;4.00;;
8252;SDS011;61313;48.396;10.008;2024-01-15T01:45:22;8.37;;;5.70;;
8252;SDS011;61313;48.396;10.008;2024-01-15T01:47:47;8.23;;;4.60;;
8252;SDS011;61313;48.396;10.008;2024-01-15T01:50:13;11.07;;;5.50;;
8252;SDS011;61313;48.396;10.008;2024-01-15T01:52:39;11.00;;;6.43;;
8252;SDS011;61313;48.396;10.008;2024-01-15T01:55:05;10.80;;;6.90;;
8252;SDS011;61313;48.396;10.008;2024-01-15T01:57:32;10.23;;;5.97;;
8252;SDS011;61313;48.396;10.008;2024-01-15T02:00:00;12.57;;;6.90;;
8252;SDS011;61313;48.396;10.008;2024-01-15T02:02:26;10.77;;;6.20;;
8252;SDS011;61313;48.396;10.008;2024-01-15T02:04:52;14.10;;;6.70;;
8252;SDS011;61313;48.396;10.008;2024-01-15T02:07:17;10.67;;;7.60;;
8252;SDS011;61313;48.396;10.008;2024-01-15T02:09:44;11.67;;;7.37;;
8252;SDS011;61313;48.396;10.008;2024-01-15T02:12:09;10.90;;;7.67;;
8252;SDS011;61313;48.396;10.008;2024-01-15T02:14:35;13.90;;;6.37;;
8252;SDS011;61313;48.396;10.008;2024-01-15T02:17:01;14.70;;;7.30;;
8252;SDS011;61313;48.396;10.008;2024-01-15T02:19:26;13.67;;;7.93;;
8252;SDS011;61313;48.396;10.008;2024-01-15T02:21:52;11.83;;;7.17;;
8252;SDS011;61313;48.396;10.008;2024-01-15T02:24:17;13.70;;;7.30;;
8252;SDS011;61313;48.396;10.008;2024-01-15T02:26:43;11.30;;;7.50;;
8252;SDS011;61313;48.396;10.008;2024-01-15T02:29:09;14.20;;;7.50;;
8252;SDS011;61313;48.396;10.008;2024-01-15T02:31:38;13.20;;;7.90;;
8252;SDS011;61313;48.396;10.008;2024-01-15T02:34:03;12.53;;;6.53;;
8252;SDS011;61313;48.396;10.008;2024-01-15T02:36:29;10.83;;;6.70;;
8252;SDS011;61313;48.396;10.008;2024-01-15T02:38:54;13.77;;;8.23;;
8252;SDS011;61313;48.396;10.008;2024-01-15T02:41:20;13.03;;;7.50;;
8252;SDS011;61313;48.396;10.008;2024-01-15T02:43:45;11.27;;;7.30;;
8252;SDS011;61313;48.396;10.008;2024-01-15T02:46:11;13.93;;;8.30;;
8252;SDS011;61313;48.396;10.008;2024-01-15T02:48:36;15.33;;;8.53;;
8252;SDS011;61313;48.396;10.008;2024-01-15T02:51:02;16.60;;;9.33;;
8252;SDS011;61313;48.396;10.008;2024-01-15T02:53:27;15.80;;;7.67;;
8252;SDS011;61313;48.396;10.008;2024-01-15T02:55:53;11.40;;;7.47;;
8252;SDS011;61313;48.396;10.008;2024-01-15T02:58:18;14.63;;;7.90;;
8252;SDS011;61313;48.396;10.008;2024-01-15T03:00:44;12.80;;;7.43;;
8252;SDS011;61313;48.396;10.008;2024-01-15T03:03:09;14.17;;;7.40;;
8252;SDS011;61313;48.396;10.008;2024-01-15T03:05:35;11.47;;;7.10;;
8252;SDS011;61313;48.396;10.008;2024-01-15T03:08:00;15.87;;;9.10;;
8252;SDS011;61313;48.396;10.008;2024-01-15T03:10:25;14.07;;;9.23;;
8252;SDS011;61313;48.396;10.008;2024-01-15T03:12:51;11.87;;;8.20;;
8252;SDS011;61313;48.396;10.008;2024-01-15T03:15:16;14.03;;;9.40;;
8252;SDS011;61313;48.396;10.008;2024-01-15T03:17:43;16.43;;;7.00;;
8252;SDS011;61313;48.396;10.008;2024-01-15T03:20:08;10.77;;;7.33;;
8252;SDS011;61313;48.396;10.008;2024-01-15T03:22:34;12.20;;;7.40;;
8252;SDS011;61313;48.396;10.008;2024-01-15T03:25:00;13.27;;;7.87;;
8252;SDS011;61313;48.396;10.008;2024-01-15T03:27:25;10.83;;;7.00;;
8252;SDS011;61313;48.396;10.008;2024-01-15T03:29:51;19.67;;;9.00;;
8252;SDS011;61313;48.396;10.008;2024-01-15T03:32:16;13.83;;;7.53;;
8252;SDS011;61313;48.396;10.008;2024-01-15T03:34:42;11.23;;;7.37;;
8252;SDS011;61313;48.396;10.008;2024-01-15T03:37:07;10.87;;;6.50;;
8252;SDS011;61313;48.396;10.008;2024-01-15T03:39:33;11.23;;;7.20;;
8252;SDS011;61313;48.396;10.008;2024-01-15T03:41:58;14.30;;;7.53;;
8252;SDS011;61313;48.396;10.008;2024-01-15T03:44:23;9.70;;;6.47;;
8252;SDS011;61313;48.396;10.008;2024-01-15T03:46:49;10.83;;;7.40;;
8252;SDS011;61313;48.396;10.008;2024-01-15T03:49:14;12.27;;;7.60;;
8252;SDS011;61313;48.396;10.008;2024-01-15T03:51:40;11.70;;;7.73;;
8252;SDS011;61313;48.396;10.008;2024-01-15T03:54:05;13.20;;;7.60;;
8252;SDS011;61313;48.396;10.008;2024-01-15T03:56:31;12.50;;;7.20;;
8252;SDS011;61313;48.396;10.008;2024-01-15T03:58:56;16.20;;;7.50;;
8252;SDS011;61313;48.396;10.008;2024-01-15T04:01:22;18.03;;;9.03;;
8252;SDS011;61313;48.396;10.008;2024-01-15T04:03:47;13.07;;;7.07;;
8252;SDS011;61313;48.396;10.008;2024-01-15T04:06:13;15.50;;;8.37;;
8252;SDS011;61313;48.396;10.008;2024-01-15T04:08:38;14.30;;;7.77;;
8252;SDS011;61313;48.396;10.008;2024-01-15T04:11:03;14.83;;;8.80;;
8252;SDS011;61313;48.396;10.008;2024-01-15T04:13:31;11.70;;;7.47;;
8252;SDS011;61313;48.396;10.008;2024-01-15T04:15:57;10.20;;;7.90;;
8252;SDS011;61313;48.396;10.008;2024-01-15T04:18:23;16.73;;;8.70;;
8252;SDS011;61313;48.396;10.008;2024-01-15T04:20:48;10.63;;;7.83;;
8252;SDS011;61313;48.396;10.008;2024-01-15T04:23:13;14.10;;;8.33;;
8252;SDS011;61313;48.396;10.008;2024-01-15T04:25:39;13.30;;;8.13;;
8252;SDS011;61313;48.396;10.008;2024-01-15T04:28:07;13.23;;;7.97;;
8252;SDS011;61313;48.396;10.008;2024-01-15T04:30:33;15.17;;;8.57;;
8252;SDS011;61313;48.396;10.008;2024-01-15T04:32:59;15.93;;;7.73;;
8252;SDS011;61313;48.396;10.008;2024-01-15T04:35:24;14.33;;;9.13;;
8252;SDS011;61313;48.396;10.008;2024-01-15T04:37:49;16.03;;;9.13;;
8252;SDS011;61313;48.396;10.008;2024-01-15T04:40:15;13.67;;;7.17;;
8252;SDS011;61313;48.396;10.008;2024-01-15T04:42:40;15.67;;;8.63;;
8252;SDS011;61313;48.396;10.008;2024-01-15T04:45:06;13.67;;;8.93;;
8252;SDS011;61313;48.396;10.008;2024-01-15T04:47:31;14.10;;;7.60;;
8252;SDS011;61313;48.396;10.008;2024-01-15T04:49:57;11.93;;;8.00;;
8252;SDS011;61313;48.396;10.008;2024-01-15T04:52:22;12.87;;;7.83;;
8252;SDS011;61313;48.396;10.008;2024-01-15T04:54:48;13.33;;;7.93;;
8252;SDS011;61313;48.396;10.008;2024-01-15T04:57:14;10.87;;;7.37;;
8252;SDS011;61313;48.396;10.008;2024-01-15T04:59:40;13.90;;;8.37;;
8252;SDS011;61313;48.396;10.008;2024-01-15T05:02:05;16.37;;;7.20;;
8252;SDS011;61313;48.396;10.008;2024-01-15T05:04:31;11.60;;;6.87;;
8252;SDS011;61313;48.396;10.008;2024-01-15T05:06:57;12.23;;;6.80;;
8252;SDS011;61313;48.396;10.008;2024-01-15T05:09:23;14.30;;;8.20;;
8252;SDS011;61313;48.396;10.008;2024-01-15T05:11:48;10.17;;;7.57;;
8252;SDS011;61313;48.396;10.008;2024-01-15T05:14:14;10.70;;;6.50;;
8252;SDS011;61313;48.396;10.008;2024-01-15T05:16:39;9.03;;;5.93;;
8252;SDS011;61313;48.396;10.008;2024-01-15T05:19:06;12.50;;;6.33;;
8252;SDS011;61313;48.396;10.008;2024-01-15T05:21:32;12.70;;;7.40;;
8252;SDS011;61313;48.396;10.008;2024-01-15T05:23:58;8.60;;;5.43;;
8252;SDS011;61313;48.396;10.008;2024-01-15T05:26:23;11.13;;;6.50;;
8252;SDS011;61313;48.396;10.008;2024-01-15T05:28:48;9.13;;;7.80;;
8252;SDS011;61313;48.396;10.008;2024-01-15T05:31:14;8.93;;;6.00;;
8252;SDS011;61313;48.396;10.008;2024-01-15T05:33:39;8.47;;;6.27;;
8252;SDS011;61313;48.396;10.008;2024-01-15T05:36:05;10.80;;;6.43;;
8252;SDS011;61313;48.396;10.008;2024-01-15T05:38:31;22.63;;;7.93;;
8252;SDS011;61313;48.396;10.008;2024-01-15T05:40:56;10.30;;;6.43;;
8252;SDS011;61313;48.396;10.008;2024-01-15T05:43:21;10.00;;;7.17;;
8252;SDS011;61313;48.396;10.008;2024-01-15T05:45:47;10.10;;;7.40;;
8252;SDS011;61313;48.396;10.008;2024-01-15T05:48:12;11.17;;;6.30;;
8252;SDS011;61313;48.396;10.008;2024-01-15T05:50:38;10.13;;;6.20;;
8252;SDS011;61313;48.396;10.008;2024-01-15T05:53:04;9.70;;;6.40;;
8252;SDS011;61313;48.396;10.008;2024-01-15T05:55:29;10.97;;;6.30;;
8252;SDS011;61313;48.396;10.008;2024-01-15T05:57:55;13.60;;;6.60;;
8252;SDS011;61313;48.396;10.008;2024-01-15T06:00:20;9.07;;;7.27;;
8252;SDS011;61313;48.396;10.008;2024-01-15T06:02:46;9.40;;;6.70;;
8252;SDS011;61313;48.396;10.008;2024-01-15T06:05:11;9.33;;;5.97;;
8252;SDS011;61313;48.396;10.008;2024-01-15T06:07:37;13.30;;;7.33;;
8252;SDS011;61313;48.396;10.008;2024-01-15T06:10:02;11.97;;;7.17;;
8252;SDS011;61313;48.396;10.008;2024-01-15T06:12:29;14.47;;;7.53;;
8252;SDS011;61313;48.396;10.008;2024-01-15T06:14:56;17.47;;;7.73;;
8252;SDS011;61313;48.396;10.008;2024-01-15T06:17:21;11.20;;;7.27;;
8252;SDS011;61313;48.396;10.008;2024-01-15T06:19:46;10.83;;;7.17;;
8252;SDS011;61313;48.396;10.008;2024-01-15T06:22:12;9.87;;;6.43;;
8252;SDS011;61313;48.396;10.008;2024-01-15T06:24:37;12.47;;;7.40;;
8252;SDS011;61313;48.396;10.008;2024-01-15T06:27:03;12.07;;;7.00;;
8252;SDS011;61313;48.396;10.008;2024-01-15T06:29:28;16.60;;;8.80;;
8252;SDS011;61313;48.396;10.008;2024-01-15T06:31:53;8.77;;;6.13;;
8252;SDS011;61313;48.396;10.008;2024-01-15T06:34:19;9.23;;;5.67;;
8252;SDS011;61313;48.396;10.008;2024-01-15T06:36:44;14.90;;;6.03;;
8252;SDS011;61313;48.396;10.008;2024-01-15T06:39:10;10.63;;;6.83;;
8252;SDS011;61313;48.396;10.008;2024-01-15T06:41:35;11.33;;;6.30;;
8252;SDS011;61313;48.396;10.008;2024-01-15T06:44:06;11.90;;;6.53;;
8252;SDS011;61313;48.396;10.008;2024-01-15T06:46:32;8.97;;;6.47;;
8252;SDS011;61313;48.396;10.008;2024-01-15T06:48:57;12.40;;;6.53;;
8252;SDS011;61313;48.396;10.008;2024-01-15T06:51:22;10.90;;;6.23;;
8252;SDS011;61313;48.396;10.008;2024-01-15T06:53:48;19.13;;;6.90;;
8252;SDS011;61313;48.396;10.008;2024-01-15T06:56:13;13.93;;;6.60;;
8252;SDS011;61313;48.396;10.008;2024-01-15T06:58:38;10.10;;;6.27;;
8252;SDS011;61313;48.396;10.008;2024-01-15T07:01:04;11.30;;;6.87;;
8252;SDS011;61313;48.396;10.008;2024-01-15T07:03:29;13.43;;;7.77;;
8252;SDS011;61313;48.396;10.008;2024-01-15T07:05:55;10.90;;;6.67;;
8252;SDS011;61313;48.396;10.008;2024-01-15T07:08:20;14.50;;;7.80;;
8252;SDS011;61313;48.396;10.008;2024-01-15T07:10:45;11.03;;;7.47;;
8252;SDS011;61313;48.396;10.008;2024-01-15T07:13:11;15.97;;;7.23;;
8252;SDS011;61313;48.396;10.008;2024-01-15T07:15:36;9.40;;;6.10;;
8252;SDS011;61313;48.396;10.008;2024-01-15T07:18:02;11.60;;;7.57;;
8252;SDS011;61313;48.396;10.008;2024-01-15T07:20:27;11.90;;;7.13;;
8252;SDS011;61313;48.396;10.008;2024-01-15T07:22:52;9.97;;;7.13;;
8252;SDS011;61313;48.396;10.008;2024-01-15T07:25:18;12.00;;;8.40;;
8252;SDS011;61313;48.396;10.008;2024-01-15T07:27:43;10.37;;;6.70;;
8252;SDS011;61313;48.396;10.008;2024-01-15T07:30:10;13.33;;;7.13;;
8252;SDS011;61313;48.396;10.008;2024-01-15T07:32:37;24.30;;;9.73;;
8252;SDS011;61313;48.396;10.008;2024-01-15T07:35:02;12.57;;;8.13;;
8252;SDS011;61313;48.396;10.008;2024-01-15T07:37:28;11.60;;;7.10;;
8252;SDS011;61313;48.396;10.008;2024-01-15T07:39:53;14.60;;;8.23;;
8252;SDS011;61313;48.396;10.008;2024-01-15T07:42:19;15.07;;;10.40;;
8252;SDS011;61313;48.396;10.008;2024-01-15T07:44:44;18.30;;;8.13;;
8252;SDS011;61313;48.396;10.008;2024-01-15T07:47:10;13.27;;;9.47;;
8252;SDS011;61313;48.396;10.008;2024-01-15T07:49:35;11.67;;;8.17;;
8252;SDS011;61313;48.396;10.008;2024-01-15T07:52:00;13.80;;;8.40;;
8252;SDS011;61313;48.396;10.008;2024-01-15T07:54:26;12.07;;;8.53;;
8252;SDS011;61313;48.396;10.008;2024-01-15T07:56:58;15.13;;;8.30;;
8252;SDS011;61313;48.396;10.008;2024-01-15T07:59:25;13.37;;;8.10;;
8252;SDS011;61313;48.396;10.008;2024-01-15T08:01:52;10.40;;;8.03;;
8252;SDS011;61313;48.396;10.008;2024-01-15T08:04:18;11.23;;;8.60;;
8252;SDS011;61313;48.396;10.008;2024-01-15T08:06:44;12.20;;;7.30;;
8252;SDS011;61313;48.396;10.008;2024-01-15T08:09:10;12.93;;;7.50;;
8252;SDS011;61313;48.396;10.008;2024-01-15T08:11:35;9.67;;;6.93;;
8252;SDS011;61313;48.396;10.008;2024-01-15T08:14:01;11.53;;;7.57;;
8252;SDS011;61313;48.396;10.008;2024-01-15T08:16:26;14.20;;;6.87;;
8252;SDS011;61313;48.396;10.008;2024-01-15T08:18:52;11.80;;;7.07;;
8252;SDS011;61313;48.396;10.008;2024-01-15T08:21:18;12.60;;;7.40;;
8252;SDS011;61313;48.396;10.008;2024-01-15T08:23:44;12.00;;;6.93;;
8252;SDS011;61313;48.396;10.008;2024-01-15T08:26:10;18.93;;;6.80;;
8252;SDS011;61313;48.396;10.008;2024-01-15T08:28:35;50.73;;;6.67;;
8252;SDS011;61313;48.396;10.008;2024-01-15T08:31:01;15.73;;;6.13;;
8252;SDS011;61313;48.396;10.008;2024-01-15T08:33:27;11.20;;;6.87;;
8252;SDS011;61313;48.396;10.008;2024-01-15T08:35:53;7.53;;;4.93;;
8252;SDS011;61313;48.396;10.008;2024-01-15T08:38:18;13.10;;;5.63;;
8252;SDS011;61313;48.396;10.008;2024-01-15T08:40:44;11.50;;;5.30;;
8252;SDS011;61313;48.396;10.008;2024-01-15T08:43:09;9.30;;;5.67;;
8252;SDS011;61313;48.396;10.008;2024-01-15T08:45:35;8.20;;;5.13;;
8252;SDS011;61313;48.396;10.008;2024-01-15T08:48:00;10.70;;;5.80;;
8252;SDS011;61313;48.396;10.008;2024-01-15T08:50:26;6.23;;;4.63;;
8252;SDS011;61313;48.396;10.008;2024-01-15T08:52:51;7.50;;;4.83;;
8252;SDS011;61313;48.396;10.008;2024-01-15T08:55:17;7.37;;;4.50;;
8252;SDS011;61313;48.396;10.008;2024-01-15T08:57:42;8.20;;;5.20;;
8252;SDS011;61313;48.396;10.008;2024-01-15T09:00:08;6.87;;;5.20;;
8252;SDS011;61313;48.396;10.008;2024-01-15T09:02:34;8.43;;;5.93;;
8252;SDS011;61313;48.396;10.008;2024-01-15T09:05:00;6.70;;;4.37;;
8252;SDS011;61313;48.396;10.008;2024-01-15T09:07:26;8.83;;;4.87;;
8252;SDS011;61313;48.396;10.008;2024-01-15T09:09:52;8.03;;;4.30;;
8252;SDS011;61313;48.396;10.008;2024-01-15T09:12:17;9.50;;;5.17;;
8252;SDS011;61313;48.396;10.008;2024-01-15T09:14:45;8.67;;;5.43;;
8252;SDS011;61313;48.396;10.008;2024-01-15T09:17:11;7.23;;;4.80;;
8252;SDS011;61313;48.396;10.008;2024-01-15T09:19:37;7.70;;;5.27;;
8252;SDS011;61313;48.396;10.008;2024-01-15T09:22:04;11.77;;;5.97;;
8252;SDS011;61313;48.396;10.008;2024-01-15T09:24:29;23.83;;;7.70;;
8252;SDS011;61313;48.396;10.008;2024-01-15T09:26:54;15.53;;;5.40;;
8252;SDS011;61313;48.396;10.008;2024-01-15T09:29:20;4.97;;;3.73;;
8252;SDS011;61313;48.396;10.008;2024-01-15T09:31:45;7.43;;;5.10;;
8252;SDS011;61313;48.396;10.008;2024-01-15T09:34:10;7.80;;;4.90;;
8252;SDS011;61313;48.396;10.008;2024-01-15T09:36:39;7.67;;;4.70;;
8252;SDS011;61313;48.396;10.008;2024-01-15T09:39:07;6.63;;;4.07;;
8252;SDS011;61313;48.396;10.008;2024-01-15T09:41:36;6.17;;;4.40;;
8252;SDS011;61313;48.396;10.008;2024-01-15T09:44:03;4.80;;;4.20;;
8252;SDS011;61313;48.396;10.008;2024-01-15T09:46:29;6.67;;;3.70;;
8252;SDS011;61313;48.396;10.008;2024-01-15T09:48:56;6.30;;;3.30;;
8252;SDS011;61313;48.396;10.008;2024-01-15T09:51:22;5.40;;;3.80;;
8252;SDS011;61313;48.396;10.008;2024-01-15T09:53:49;4.80;;;3.60;;
8252;SDS011;61313;48.396;10.008;2024-01-15T09:56:15;4.60;;;3.33;;
8252;SDS011;61313;48.396;10.008;2024-01-15T09:58:41;15.03;;;4.10;;
8252;SDS011;61313;48.396;10.008;2024-01-15T10:01:07;7.23;;;4.23;;
8252;SDS011;61313;48.396;10.008;2024-01-15T10:03:33;17.60;;;5.07;;
8252;SDS011;61313;48.396;10.008;2024-01-15T10:05:59;8.67;;;4.07;;
8252;SDS011;61313;48.396;10.008;2024-01-15T10:08:25;11.10;;;4.07;;
8252;SDS011;61313;48.396;10.008;2024-01-15T10:10:50;8.30;;;4.80;;
8252;SDS011;61313;48.396;10.008;2024-01-15T10:13:16;5.83;;;4.10;;
8252;SDS011;61313;48.396;10.008;2024-01-15T10:15:44;5.90;;;3.50;;
8252;SDS011;61313;48.396;10.008;2024-01-15T10:18:11;5.60;;;3.87;;
8252;SDS011;61313;48.396;10.008;2024-01-15T10:20:37;5.87;;;3.27;;
8252;SDS011;61313;48.396;10.008;2024-01-15T10:23:02;6.57;;;3.87;;
8252;SDS011;61313;48.396;10.008;2024-01-15T10:25:29;4.43;;;3.37;;
8252;SDS011;61313;48.396;10.008;2024-01-15T10:28:02;8.67;;;3.37;;
8252;SDS011;61313;48.396;10.008;2024-01-15T10:30:29;6.60;;;2.77;;
8252;SDS011;61313;48.396;10.008;2024-01-15T10:32:58;9.80;;;4.10;;
8252;SDS011;61313;48.396;10.008;2024-01-15T10:35:29;5.90;;;3.60;;
8252;SDS011;61313;48.396;10.008;2024-01-15T10:37:54;8.77;;;3.00;;
8252;SDS011;61313;48.396;10.008;2024-01-15T10:40:20;17.87;;;5.10;;
8252;SDS011;61313;48.396;10.008;2024-01-15T10:42:45;7.20;;;2.80;;
8252;SDS011;61313;48.396;10.008;2024-01-15T10:45:12;4.23;;;2.73;;
8252;SDS011;61313;48.396;10.008;2024-01-15T10:47:38;11.03;;;2.50;;
8252;SDS011;61313;48.396;10.008;2024-01-15T10:50:04;2.97;;;2.40;;
8252;SDS011;61313;48.396;10.008;2024-01-15T10:52:32;7.53;;;2.63;;
8252;SDS011;61313;48.396;10.008;2024-01-15T10:54:59;4.50;;;2.23;;
8252;SDS011;61313;48.396;10.008;2024-01-15T10:57:25;8.13;;;3.13;;
8252;SDS011;61313;48.396;10.008;2024-01-15T10:59:52;4.90;;;2.40;;
8252;SDS011;61313;48.396;10.008;2024-01-15T11:02:17;3.53;;;2.37;;
8252;SDS011;61313;48.396;10.008;2024-01-15T11:04:43;6.33;;;2.40;;
8252;SDS011;61313;48.396;10.008;2024-01-15T11:07:08;6.23;;;2.97;;
8252;SDS011;61313;48.396;10.008;2024-01-15T11:09:36;2.90;;;2.43;;
8252;SDS011;61313;48.396;10.008;2024-01-15T11:12:12;5.37;;;2.60;;
8252;SDS011;61313;48.396;10.008;2024-01-15T11:17:04;14.97;;;3.37;;
8252;SDS011;61313;48.396;10.008;2024-01-15T11:22:08;2.90;;;2.60;;
8252;SDS011;61313;48.396;10.008;2024-01-15T11:24:35;7.27;;;2.47;;
8252;SDS011;61313;48.396;10.008;2024-01-15T11:27:05;4.57;;;2.20;;
8252;SDS011;61313;48.396;10.008;2024-01-15T11:29:32;4.63;;;2.40;;
8252;SDS011;61313;48.396;10.008;2024-01-15T11:32:00;6.70;;;2.27;;
8252;SDS011;61313;48.396;10.008;2024-01-15T11:37:24;7.93;;;2.70;;
8252;SDS011;61313;48.396;10.008;2024-01-15T11:40:00;6.73;;;3.40;;
8252;SDS011;61313;48.396;10.008;2024-01-15T11:42:28;5.30;;;2.73;;
8252;SDS011;61313;48.396;10.008;2024-01-15T11:44:54;4.30;;;3.07;;
8252;SDS011;61313;48.396;10.008;2024-01-15T11:50:27;8.40;;;2.67;;
8252;SDS011;61313;48.396;10.008;2024-01-15T11:52:58;4.70;;;2.20;;
8252;SDS011;61313;48.396;10.008;2024-01-15T11:58:09;4.17;;;2.80;;
8252;SDS011;61313;48.396;10.008;2024-01-15T12:00:40;3.13;;;2.33;;
8252;SDS011;61313;48.396;10.008;2024-01-15T12:03:08;4.87;;;2.83;;
8252;SDS011;61313;48.396;10.008;2024-01-15T12:05:36;9.57;;;3.10;;
8252;SDS011;61313;48.396;10.008;2024-01-15T12:08:02;4.60;;;2.30;;
8252;SDS011;61313;48.396;10.008;2024-01-15T12:10:27;9.87;;;3.00;;
8252;SDS011;61313;48.396;10.008;2024-01-15T12:12:58;4.50;;;2.73;;
8252;SDS011;61313;48.396;10.008;2024-01-15T12:15:25;6.67;;;2.97;;
8252;SDS011;61313;48.396;10.008;2024-01-15T12:17:54;2.90;;;2.67;;
8252;SDS011;61313;48.396;10.008;2024-01-15T12:20:24;2.90;;;2.30;;
8252;SDS011;61313;48.396;10.008;2024-01-15T12:22:53;10.73;;;2.87;;
8252;SDS011;61313;48.396;10.008;2024-01-15T12:25:22;5.63;;;2.40;;
8252;SDS011;61313;48.396;10.008;2024-01-15T12:27:49;6.93;;;3.10;;
8252;SDS011;61313;48.396;10.008;2024-01-15T12:30:15;7.20;;;3.00;;
8252;SDS011;61313;48.396;10.008;2024-01-15T12:32:41;5.50;;;3.00;;
8252;SDS011;61313;48.396;10.008;2024-01-15T12:35:07;6.37;;;3.27;;
8252;SDS011;61313;48.396;10.008;2024-01-15T12:37:35;4.40;;;3.13;;
8252;SDS011;61313;48.396;10.008;2024-01-15T12:40:00;4.80;;;3.10;;
8252;SDS011;61313;48.396;10.008;2024-01-15T12:42:27;4.77;;;2.57;;
8252;SDS011;61313;48.396;10.008;2024-01-15T12:44:54;5.63;;;2.60;;
8252;SDS011;61313;48.396;10.008;2024-01-15T12:47:21;23.30;;;5.50;;
8252;SDS011;61313;48.396;10.008;2024-01-15T12:49:47;21.83;;;7.60;;
8252;SDS011;61313;48.396;10.008;2024-01-15T12:52:18;37.13;;;6.73;;
8252;SDS011;61313;48.396;10.008;2024-01-15T12:54:44;6.53;;;2.87;;
8252;SDS011;61313;48.396;10.008;2024-01-15T12:57:09;6.93;;;2.90;;
8252;SDS011;61313;48.396;10.008;2024-01-15T12:59:35;2.90;;;1.90;;
8252;SDS011;61313;48.396;10.008;2024-01-15T13:02:00;5.77;;;2.90;;
8252;SDS011;61313;48.396;10.008;2024-01-15T13:04:26;3.50;;;2.10;;
8252;SDS011;61313;48.396;10.008;2024-01-15T13:06:52;3.40;;;2.20;;
8252;SDS011;61313;48.396;10.008;2024-01-15T13:09:18;5.43;;;2.07;;
8252;SDS011;61313;48.396;10.008;2024-01-15T13:11:46;3.50;;;2.60;;
8252;SDS011;61313;48.396;10.008;2024-01-15T13:14:12;3.60;;;2.30;;
8252;SDS011;61313;48.396;10.008;2024-01-15T13:16:41;3.50;;;2.00;;
8252;SDS011;61313;48.396;10.008;2024-01-15T13:19:10;5.53;;;2.10;;
8252;SDS011;61313;48.396;10.008;2024-01-15T13:21:41;4.07;;;2.30;;
8252;SDS011;61313;48.396;10.008;2024-01-15T13:24:07;5.60;;;2.53;;
8252;SDS011;61313;48.396;10.008;2024-01-15T13:26:33;9.90;;;2.83;;
8252;SDS011;61313;48.396;10.008;2024-01-15T13:29:01;5.50;;;2.37;;
8252;SDS011;61313;48.396;10.008;2024-01-15T13:31:30;4.40;;;3.00;;
8252;SDS011;61313;48.396;10.008;2024-01-15T13:33:57;4.33;;;3.10;;
8252;SDS011;61313;48.396;10.008;2024-01-15T13:36:23;5.30;;;3.47;;
8252;SDS011;61313;48.396;10.008;2024-01-15T13:38:49;8.43;;;5.00;;
8252;SDS011;61313;48.396;10.008;2024-01-15T13:41:15;5.97;;;3.20;;
8252;SDS011;61313;48.396;10.008;2024-01-15T13:43:41;4.60;;;3.47;;
8252;SDS011;61313;48.396;10.008;2024-01-15T13:46:06;3.67;;;2.47;;
8252;SDS011;61313;48.396;10.008;2024-01-15T13:48:32;6.27;;;2.73;;
8252;SDS011;61313;48.396;10.008;2024-01-15T13:50:57;3.37;;;2.67;;
8252;SDS011;61313;48.396;10.008;2024-01-15T13:53:24;3.57;;;2.60;;
8252;SDS011;61313;48.396;10.008;2024-01-15T13:55:49;6.30;;;4.33;;
8252;SDS011;61313;48.396;10.008;2024-01-15T13:58:15;8.40;;;3.20;;
8252;SDS011;61313;48.396;10.008;2024-01-15T14:00:41;4.20;;;2.60;;
8252;SDS011;61313;48.396;10.008;2024-01-15T14:03:06;4.80;;;3.00;;
8252;SDS011;61313;48.396;10.008;2024-01-15T14:05:32;4.70;;;2.77;;
8252;SDS011;61313;48.396;10.008;2024-01-15T14:07:57;5.90;;;2.67;;
8252;SDS011;61313;48.396;10.008;2024-01-15T14:10:23;5.83;;;2.87;;
8252;SDS011;61313;48.396;10.008;2024-01-15T14:12:49;5.20;;;3.70;;
8252;SDS011;61313;48.396;10.008;2024-01-15T14:15:14;7.53;;;3.03;;
8252;SDS011;61313;48.396;10.008;2024-01-15T14:17:39;4.17;;;2.97;;
8252;SDS011;61313;48.396;10.008;2024-01-15T14:20:05;7.27;;;3.90;;
8252;SDS011;61313;48.396;10.008;2024-01-15T14:22:31;7.23;;;4.20;;
8252;SDS011;61313;48.396;10.008;2024-01-15T14:24:56;9.43;;;3.40;;
8252;SDS011;61313;48.396;10.008;2024-01-15T14:27:22;6.10;;;3.10;;
8252;SDS011;61313;48.396;10.008;2024-01-15T14:29:47;7.03;;;3.03;;
8252;SDS011;61313;48.396;10.008;2024-01-15T14:32:13;3.10;;;2.80;;
8252;SDS011;61313;48.396;10.008;2024-01-15T14:34:38;4.10;;;2.67;;
8252;SDS011;61313;48.396;10.008;2024-01-15T14:37:03;5.97;;;3.50;;
8252;SDS011;61313;48.396;10.008;2024-01-15T14:39:29;6.30;;;3.53;;
8252;SDS011;61313;48.396;10.008;2024-01-15T14:41:57;4.87;;;2.87;;
8252;SDS011;61313;48.396;10.008;2024-01-15T14:44:22;6.80;;;3.50;;
8252;SDS011;61313;48.396;10.008;2024-01-15T14:46:47;6.30;;;2.80;;